Terminal Aerodrome Forecast
Issued by NWS

Home | Current Version | Previous Version | Text Only | Print | Product List | Glossary On
Versions: 1 2 3 4 5 6 7 8 9 10 11 12 13 14 15 16 17 18 19 20 21 22 23 24 25
000
FTUS44 KOUN 201124
TAFWWR
TAF
KWWR 201124Z 2012/2112 11007KT 3SM BR OVC007
      TEMPO 2012/2015 1SM -DZ BR OVC004
     FM201800 17013KT P6SM BKN025
     FM202200 15012KT P6SM SCT030
     FM210200 14011KT P6SM BKN025 PROB30 2106/2110 4SM TSRA OVC009CB
     FM211000 06006KT P6SM OVC007=

USA.gov is the U.S. government's official web portal to all federal, state and local government web resources and services.